createdAt,value
2022-12-08T00:01:06.710Z,17.70
2022-12-08T00:03:34.637Z,18.50
2022-12-08T00:06:22.433Z,17.23
2022-12-08T00:09:08.706Z,17.53
2022-12-08T00:11:36.587Z,17.77
2022-12-08T00:14:04.353Z,17.50
2022-12-08T00:16:31.867Z,19.27
2022-12-08T00:18:59.351Z,17.37
2022-12-08T00:21:26.829Z,20.03
2022-12-08T00:23:56.214Z,17.17
2022-12-08T00:26:24.194Z,20.77
2022-12-08T00:28:51.678Z,18.67
2022-12-08T00:31:19.296Z,19.87
2022-12-08T00:33:46.905Z,18.63
2022-12-08T00:36:15.267Z,19.47
2022-12-08T00:38:44.925Z,17.77
2022-12-08T00:41:16.950Z,21.47
2022-12-08T00:43:44.421Z,18.63
2022-12-08T00:46:12.381Z,19.23
2022-12-08T00:48:39.982Z,19.27
2022-12-08T00:51:07.578Z,17.60
2022-12-08T00:53:35.041Z,19.90
2022-12-08T00:56:02.535Z,18.37
2022-12-08T00:58:30.085Z,20.37
2022-12-08T01:00:58.896Z,20.40
2022-12-08T01:03:26.510Z,19.90
2022-12-08T01:05:54.019Z,19.27
2022-12-08T01:08:21.576Z,19.43
2022-12-08T01:10:49.067Z,21.33
2022-12-08T01:13:16.577Z,18.20
2022-12-08T01:15:44.057Z,20.53
2022-12-08T01:18:11.465Z,17.57
2022-12-08T01:20:38.959Z,19.27
2022-12-08T01:23:06.428Z,18.37
2022-12-08T01:25:35.656Z,18.27
2022-12-08T01:28:03.174Z,19.53
2022-12-08T01:30:31.225Z,19.13
2022-12-08T01:32:59.143Z,16.27
2022-12-08T01:35:26.613Z,16.53
2022-12-08T01:37:54.173Z,17.03
2022-12-08T01:40:21.652Z,17.80
2022-12-08T01:42:50.217Z,19.13
2022-12-08T01:45:25.983Z,18.87
2022-12-08T01:47:56.964Z,19.93
2022-12-08T01:50:24.641Z,19.17
2022-12-08T01:52:56.719Z,20.53
2022-12-08T01:55:26.948Z,19.73
2022-12-08T01:57:56.853Z,17.93
2022-12-08T02:00:24.748Z,19.03
2022-12-08T02:02:55.041Z,19.40
2022-12-08T02:05:24.090Z,20.87
2022-12-08T02:07:52.524Z,18.63
2022-12-08T02:10:21.133Z,21.33
2022-12-08T02:12:49.311Z,17.83
2022-12-08T02:15:16.910Z,19.93
2022-12-08T02:17:47.379Z,19.33
2022-12-08T02:20:24.128Z,20.17
2022-12-08T02:23:00.756Z,18.57
2022-12-08T02:25:42.833Z,20.53
2022-12-08T02:28:45.553Z,21.40
2022-12-08T02:31:16.071Z,21.17
2022-12-08T02:34:05.387Z,20.83
2022-12-08T02:36:53.094Z,21.73
2022-12-08T02:39:26.592Z,17.80
2022-12-08T02:42:08.234Z,20.03
2022-12-08T02:44:58.387Z,19.57
2022-12-08T02:47:26.363Z,21.13
2022-12-08T02:49:55.570Z,21.63
2022-12-08T02:52:23.008Z,19.97
2022-12-08T02:54:55.173Z,21.37
2022-12-08T02:57:33.826Z,22.47
2022-12-08T03:00:04.686Z,20.70
2022-12-08T03:02:51.080Z,21.63
2022-12-08T03:05:37.463Z,22.23
2022-12-08T03:08:20.065Z,19.23
2022-12-08T03:10:52.629Z,17.73
2022-12-08T03:13:28.620Z,20.60
2022-12-08T03:15:56.743Z,18.63
2022-12-08T03:18:28.515Z,13.77
2022-12-08T03:20:56.349Z,15.63
2022-12-08T03:23:25.348Z,18.50
2022-12-08T03:25:57.596Z,18.57
2022-12-08T03:28:25.234Z,16.67
2022-12-08T03:30:54.893Z,15.80
2022-12-08T03:33:33.667Z,16.37
2022-12-08T03:36:01.701Z,13.13
2022-12-08T03:38:37.766Z,16.47
2022-12-08T03:41:20.777Z,14.23
2022-12-08T03:43:55.079Z,17.70
2022-12-08T03:48:49.779Z,16.97
2022-12-08T03:51:17.840Z,16.43
2022-12-08T03:53:45.715Z,16.20
2022-12-08T03:56:32.842Z,16.73
2022-12-08T03:59:00.383Z,16.03
2022-12-08T04:01:27.927Z,15.93
2022-12-08T04:03:55.502Z,16.13
2022-12-08T04:06:23.090Z,18.67
2022-12-08T04:08:51.178Z,15.90
2022-12-08T04:11:19.090Z,14.27
2022-12-08T04:13:47.156Z,15.87
2022-12-08T04:16:22.559Z,16.30
2022-12-08T04:18:50.151Z,14.10
2022-12-08T04:21:17.979Z,14.77
2022-12-08T04:23:45.717Z,17.83
2022-12-08T04:36:16.290Z,14.10
2022-12-08T04:38:43.722Z,13.40
2022-12-08T04:41:11.097Z,14.90
2022-12-08T04:43:38.527Z,16.27
2022-12-08T04:46:09.507Z,15.30
2022-12-08T04:48:40.384Z,13.80
2022-12-08T04:51:08.329Z,11.83
2022-12-08T04:53:35.676Z,16.67
2022-12-08T04:56:03.062Z,15.07
2022-12-08T04:58:30.395Z,13.50
2022-12-08T05:00:57.785Z,14.67
2022-12-08T05:03:28.500Z,16.00
2022-12-08T05:05:56.299Z,18.30
2022-12-08T05:08:23.644Z,15.03
2022-12-08T05:10:51.042Z,14.70
2022-12-08T05:13:18.329Z,15.33
2022-12-08T05:15:45.605Z,20.03
2022-12-08T05:18:13.475Z,16.13
2022-12-08T05:20:40.825Z,19.30
2022-12-08T05:23:08.279Z,16.03
2022-12-08T05:25:35.657Z,15.57
2022-12-08T05:28:32.648Z,15.47
2022-12-08T05:30:50.370Z,15.43
2022-12-08T05:33:17.909Z,14.60
2022-12-08T05:35:45.335Z,14.20
2022-12-08T05:38:12.768Z,14.80
2022-12-08T05:40:40.781Z,14.83
2022-12-08T05:43:08.147Z,15.10
2022-12-08T05:45:35.531Z,17.67
2022-12-08T05:48:03.117Z,14.23
2022-12-08T05:50:30.566Z,14.37
2022-12-08T05:52:57.941Z,15.40
2022-12-08T05:55:25.336Z,14.63
2022-12-08T05:57:52.738Z,15.77
2022-12-08T06:00:20.872Z,13.83
2022-12-08T06:02:48.536Z,14.60
2022-12-08T06:05:15.980Z,14.10
2022-12-08T06:07:43.377Z,14.97
2022-12-08T06:10:10.931Z,14.37
2022-12-08T06:12:38.330Z,13.33
2022-12-08T06:15:05.804Z,14.30
2022-12-08T06:17:33.200Z,15.23
2022-12-08T06:20:00.601Z,15.03
2022-12-08T06:22:28.036Z,14.10
2022-12-08T06:24:55.416Z,13.70
2022-12-08T06:27:22.810Z,17.07
2022-12-08T06:29:50.195Z,14.50
2022-12-08T06:32:18.994Z,14.70
2022-12-08T06:34:48.170Z,13.47
2022-12-08T06:37:15.795Z,14.80
2022-12-08T06:39:43.110Z,14.20
2022-12-08T06:42:29.085Z,14.33
2022-12-08T06:45:03.206Z,13.20
2022-12-08T06:47:30.730Z,14.30
2022-12-08T06:49:58.066Z,13.73
2022-12-08T06:52:25.417Z,14.00
2022-12-08T06:54:52.750Z,14.07
2022-12-08T06:57:20.105Z,14.93
2022-12-08T06:59:47.512Z,16.10
2022-12-08T07:02:14.919Z,13.30
2022-12-08T07:04:42.321Z,15.23
2022-12-08T07:07:09.909Z,13.10
2022-12-08T07:09:37.324Z,13.97
2022-12-08T07:12:05.431Z,14.63
2022-12-08T07:14:32.759Z,13.53
2022-12-08T07:17:00.220Z,13.77
2022-12-08T07:19:27.689Z,14.30
2022-12-08T07:21:54.982Z,15.47
2022-12-08T07:24:22.403Z,14.90
2022-12-08T07:26:49.797Z,13.90
2022-12-08T07:29:20.503Z,13.77
2022-12-08T07:31:52.094Z,16.47
2022-12-08T07:34:19.477Z,17.53
2022-12-08T07:36:46.893Z,15.00
2022-12-08T07:39:14.221Z,15.40
2022-12-08T07:41:41.618Z,15.93
2022-12-08T07:44:09.822Z,16.00
2022-12-08T07:46:37.345Z,14.73
2022-12-08T07:49:04.730Z,15.80
2022-12-08T07:51:32.265Z,15.30
2022-12-08T07:53:59.607Z,15.83
2022-12-08T07:56:26.969Z,15.47
2022-12-08T07:58:54.395Z,17.47
2022-12-08T08:01:28.911Z,16.17
2022-12-08T08:03:57.186Z,17.33
2022-12-08T08:06:24.986Z,15.97
2022-12-08T08:08:52.383Z,15.93
2022-12-08T08:11:21.668Z,15.60
2022-12-08T08:13:50.008Z,15.10
2022-12-08T08:16:17.470Z,16.50
2022-12-08T08:18:47.293Z,17.67
2022-12-08T08:21:44.937Z,15.43
2022-12-08T08:24:01.984Z,16.90
2022-12-08T08:26:29.304Z,17.03
2022-12-08T08:28:57.451Z,18.60
2022-12-08T08:31:26.090Z,14.53
2022-12-08T08:33:54.100Z,18.00
2022-12-08T08:36:22.213Z,20.70
2022-12-08T08:38:49.633Z,20.57
2022-12-08T08:41:17.007Z,19.30
2022-12-08T08:43:45.947Z,18.47
2022-12-08T08:46:13.324Z,19.97
2022-12-08T08:48:41.007Z,18.67
2022-12-08T08:51:12.075Z,18.57
2022-12-08T08:53:39.452Z,17.53
2022-12-08T08:56:13.642Z,18.50
2022-12-08T08:58:41.166Z,17.60
2022-12-08T09:01:08.783Z,21.23
2022-12-08T09:03:36.156Z,21.60
2022-12-08T09:06:03.658Z,18.50
2022-12-08T09:08:31.387Z,20.43
2022-12-08T09:10:58.903Z,19.67
2022-12-08T09:13:26.276Z,16.87
2022-12-08T09:15:53.727Z,18.47
2022-12-08T09:18:21.150Z,18.77
2022-12-08T09:20:48.545Z,18.70
2022-12-08T09:23:15.869Z,20.30
2022-12-08T09:25:45.626Z,19.00
2022-12-08T09:28:13.800Z,17.90
2022-12-08T09:30:41.669Z,21.27
2022-12-08T09:33:09.060Z,19.77
2022-12-08T09:35:38.021Z,17.90
2022-12-08T09:38:05.446Z,20.90
2022-12-08T09:40:33.850Z,19.50
2022-12-08T09:43:16.959Z,20.97
2022-12-08T09:45:45.050Z,17.77
2022-12-08T09:48:12.401Z,20.50
2022-12-08T09:50:41.656Z,18.60
2022-12-08T09:53:22.078Z,20.87
2022-12-08T09:55:55.437Z,18.40
2022-12-08T09:58:28.420Z,18.93
2022-12-08T10:00:55.860Z,19.63
2022-12-08T10:03:25.119Z,13.37
2022-12-08T10:05:59.872Z,18.00
2022-12-08T10:08:31.889Z,18.83
2022-12-08T10:11:00.434Z,22.07
2022-12-08T10:13:35.302Z,19.33
2022-12-08T10:16:05.784Z,18.00
2022-12-08T10:18:34.545Z,17.73
2022-12-08T10:21:10.706Z,17.87
2022-12-08T10:23:39.461Z,16.63
2022-12-08T10:26:08.282Z,17.70
2022-12-08T10:28:41.450Z,17.27
2022-12-08T10:31:19.023Z,17.60
2022-12-08T10:33:47.686Z,16.77
2022-12-08T10:36:15.033Z,14.03
2022-12-08T10:38:42.414Z,15.47
2022-12-08T10:41:12.745Z,16.23
2022-12-08T10:43:44.474Z,17.63
2022-12-08T10:46:11.972Z,19.20
2022-12-08T10:48:47.722Z,17.30
2022-12-08T10:51:25.914Z,18.67
2022-12-08T10:53:53.307Z,16.73
2022-12-08T10:56:25.354Z,16.70
2022-12-08T10:59:05.247Z,17.57
2022-12-08T11:01:38.357Z,17.03
2022-12-08T11:04:07.918Z,17.00
2022-12-08T11:06:36.539Z,16.87
2022-12-08T11:09:19.079Z,20.63
2022-12-08T11:11:53.807Z,18.43
2022-12-08T11:14:47.592Z,18.23
2022-12-08T11:17:17.905Z,17.50
2022-12-08T11:19:46.684Z,16.73
2022-12-08T11:22:30.382Z,15.47
2022-12-08T11:24:59.946Z,16.53
2022-12-08T11:27:27.368Z,16.63
2022-12-08T11:29:54.891Z,17.53
2022-12-08T11:32:22.554Z,15.27
2022-12-08T11:35:01.404Z,15.60
2022-12-08T11:37:35.432Z,18.17
2022-12-08T11:40:05.730Z,16.37
2022-12-08T11:42:36.385Z,16.30
2022-12-08T11:45:07.155Z,15.87
2022-12-08T11:47:41.179Z,15.53
2022-12-08T11:50:21.132Z,14.50
2022-12-08T11:52:49.436Z,15.63
2022-12-08T11:55:20.025Z,14.63
2022-12-08T11:57:47.862Z,15.20
2022-12-08T12:00:17.153Z,15.27
2022-12-08T12:02:51.356Z,14.37
2022-12-08T12:05:39.896Z,16.07
2022-12-08T12:08:14.807Z,11.03
2022-12-08T12:10:48.208Z,12.23
2022-12-08T12:13:30.764Z,13.77
2022-12-08T12:16:16.982Z,13.27
2022-12-08T12:18:46.647Z,14.40
2022-12-08T12:21:20.040Z,13.23
2022-12-08T12:23:53.343Z,11.47
2022-12-08T12:26:24.532Z,11.73
2022-12-08T12:29:12.290Z,13.27
2022-12-08T12:31:41.656Z,13.20
2022-12-08T12:34:25.756Z,11.67
2022-12-08T12:37:04.340Z,12.30
2022-12-08T12:39:34.842Z,12.23
2022-12-08T12:42:03.232Z,13.90
2022-12-08T12:44:30.552Z,11.07
2022-12-08T12:46:59.161Z,11.70
2022-12-08T12:49:43.879Z,12.80
2022-12-08T12:52:11.216Z,11.67
2022-12-08T12:54:42.776Z,12.47
2022-12-08T12:57:10.115Z,12.23
2022-12-08T12:59:56.255Z,12.07
2022-12-08T13:02:23.718Z,10.87
2022-12-08T13:04:56.936Z,10.73
2022-12-08T13:07:26.494Z,12.20
2022-12-08T13:09:59.134Z,12.00
2022-12-08T13:12:28.211Z,12.97
2022-12-08T13:14:59.485Z,12.17
2022-12-08T13:17:30.244Z,11.07
2022-12-08T13:19:58.715Z,10.07
2022-12-08T13:23:01.889Z,11.47
2022-12-08T13:25:41.275Z,9.87
2022-12-08T13:28:19.748Z,10.27
2022-12-08T13:30:47.498Z,10.77
2022-12-08T13:33:19.746Z,10.07
2022-12-08T13:35:50.111Z,10.57
2022-12-08T13:38:20.141Z,9.80
2022-12-08T13:40:48.211Z,12.23
2022-12-08T13:43:50.951Z,10.40
2022-12-08T13:51:23.860Z,9.37
2022-12-08T13:53:49.693Z,9.13
2022-12-08T13:56:37.432Z,11.77
2022-12-08T13:57:56.152Z,9.00
2022-12-08T14:00:27.448Z,6.87
2022-12-08T14:02:58.884Z,9.83
2022-12-08T14:05:55.050Z,9.37
2022-12-08T14:08:50.442Z,9.13
2022-12-08T14:11:08.293Z,5.87
2022-12-08T14:13:35.678Z,10.10
2022-12-08T14:16:03.278Z,10.17
2022-12-08T14:18:31.812Z,10.10
2022-12-08T14:21:22.253Z,9.87
2022-12-08T14:23:49.676Z,9.33
2022-12-08T14:26:18.308Z,9.60
2022-12-08T14:28:45.989Z,8.77
2022-12-08T14:31:14.707Z,10.03
2022-12-08T14:33:43.095Z,10.00
2022-12-08T14:36:10.912Z,9.27
2022-12-08T14:38:38.709Z,8.50
2022-12-08T14:41:07.953Z,10.60
2022-12-08T14:43:35.813Z,8.60
2022-12-08T14:46:06.409Z,10.47
2022-12-08T14:48:34.038Z,11.00
2022-12-08T14:51:04.253Z,9.47
2022-12-08T14:53:51.905Z,8.27
2022-12-08T14:56:25.030Z,9.87
2022-12-08T14:59:03.565Z,11.10
2022-12-08T15:01:31.288Z,10.67
2022-12-08T15:04:14.936Z,11.87
2022-12-08T15:06:53.717Z,11.03
2022-12-08T15:09:36.902Z,9.90
2022-12-08T15:12:08.111Z,13.17
2022-12-08T15:14:37.286Z,9.17
2022-12-08T15:17:04.948Z,10.23
2022-12-08T15:19:34.146Z,10.03
2022-12-08T15:22:17.558Z,10.53
2022-12-08T15:24:44.878Z,10.60
2022-12-08T15:27:18.049Z,11.10
2022-12-08T15:29:46.922Z,11.90
2022-12-08T15:32:17.527Z,10.47
2022-12-08T15:34:44.897Z,10.43
2022-12-08T15:37:30.082Z,12.30
2022-12-08T15:39:57.433Z,10.60
2022-12-08T15:42:24.783Z,11.70
2022-12-08T15:44:52.124Z,10.47
2022-12-08T15:47:23.630Z,12.07
2022-12-08T15:49:52.628Z,9.33
2022-12-08T15:52:24.743Z,11.27
2022-12-08T15:54:52.374Z,11.20
2022-12-08T15:57:35.879Z,10.43
2022-12-08T16:00:50.683Z,12.00
2022-12-08T16:03:49.447Z,9.97
2022-12-08T16:09:06.114Z,8.93
2022-12-08T16:12:06.612Z,11.43
2022-12-08T16:17:23.481Z,10.23
2022-12-08T16:19:50.891Z,9.60
2022-12-08T16:25:18.141Z,10.60
2022-12-08T16:30:35.048Z,10.27
2022-12-08T16:33:02.647Z,10.60
2022-12-08T16:35:29.979Z,9.53
2022-12-08T16:37:57.444Z,9.67
2022-12-08T16:40:24.851Z,8.77
2022-12-08T16:42:52.221Z,8.80
2022-12-08T16:45:21.592Z,9.20
2022-12-08T16:47:50.507Z,10.10
2022-12-08T16:50:19.368Z,8.63
2022-12-08T16:52:47.220Z,9.30
2022-12-08T16:55:18.378Z,8.97
2022-12-08T16:57:47.202Z,8.77
2022-12-08T17:00:16.111Z,10.93
2022-12-08T17:02:44.866Z,8.97
2022-12-08T17:05:15.918Z,8.30
2022-12-08T17:07:44.189Z,9.37
2022-12-08T17:10:12.726Z,8.73
2022-12-08T17:12:40.172Z,8.83
2022-12-08T17:15:08.949Z,9.37
2022-12-08T17:17:36.464Z,9.57
2022-12-08T17:20:05.562Z,9.20
2022-12-08T17:22:33.613Z,8.67
2022-12-08T17:25:01.397Z,8.33
2022-12-08T17:27:29.199Z,9.00
2022-12-08T17:29:56.574Z,35.63
2022-12-08T17:32:24.247Z,24.37
2022-12-08T17:34:51.695Z,14.17
2022-12-08T17:37:19.355Z,16.33
2022-12-08T17:39:46.662Z,14.40
2022-12-08T17:42:14.781Z,11.43
2022-12-08T17:44:46.799Z,11.70
2022-12-08T17:47:14.429Z,10.67
2022-12-08T17:49:41.770Z,10.57
2022-12-08T17:52:09.315Z,10.73
2022-12-08T17:54:36.712Z,10.93
2022-12-08T17:57:04.577Z,9.87
2022-12-08T17:59:32.026Z,10.70
2022-12-08T18:02:00.282Z,10.20
2022-12-08T18:04:27.897Z,9.97
2022-12-08T18:06:55.370Z,9.90
2022-12-08T18:09:22.797Z,8.77
2022-12-08T18:11:50.190Z,8.93
2022-12-08T18:14:17.771Z,8.97
2022-12-08T18:16:46.754Z,9.33
2022-12-08T18:19:14.779Z,9.83
2022-12-08T18:21:42.533Z,11.13
2022-12-08T18:24:10.438Z,11.17
2022-12-08T18:26:37.888Z,13.27
2022-12-08T18:29:05.186Z,12.53
2022-12-08T18:31:32.691Z,11.90
2022-12-08T18:34:00.155Z,11.60
2022-12-08T18:36:27.493Z,11.20
2022-12-08T18:38:54.885Z,10.20
2022-12-08T18:41:24.606Z,12.00
2022-12-08T18:43:52.494Z,12.43
2022-12-08T18:46:19.972Z,10.90
2022-12-08T18:48:49.341Z,11.43
2022-12-08T18:51:20.994Z,12.77
2022-12-08T18:53:48.515Z,10.17
2022-12-08T18:56:26.377Z,11.10
2022-12-08T18:58:57.370Z,11.23
2022-12-08T19:01:29.045Z,12.37
2022-12-08T19:04:26.842Z,11.93
2022-12-08T19:06:45.242Z,13.13
2022-12-08T19:09:13.108Z,13.80
2022-12-08T19:11:40.846Z,14.40
2022-12-08T19:14:08.374Z,12.77
2022-12-08T19:16:36.549Z,13.67
2022-12-08T19:19:04.671Z,16.40
2022-12-08T19:21:32.594Z,12.63
2022-12-08T19:24:00.412Z,11.17
2022-12-08T19:26:28.709Z,13.47
2022-12-08T19:28:56.209Z,14.07
2022-12-08T19:31:23.627Z,13.87
2022-12-08T19:33:51.393Z,14.00
2022-12-08T19:36:19.688Z,15.60
2022-12-08T19:39:06.005Z,16.20
2022-12-08T19:41:52.342Z,14.27
2022-12-08T19:44:39.682Z,14.07
2022-12-08T19:47:07.265Z,13.67
2022-12-08T19:49:34.726Z,13.90
2022-12-08T19:52:02.085Z,13.73
2022-12-08T19:54:29.462Z,14.87
2022-12-08T19:56:56.840Z,14.43
2022-12-08T19:59:26.410Z,15.27
2022-12-08T20:01:56.035Z,14.63
2022-12-08T20:04:24.196Z,13.53
2022-12-08T20:06:52.523Z,13.73
2022-12-08T20:09:20.761Z,13.43
2022-12-08T20:11:48.364Z,14.80
2022-12-08T20:14:15.693Z,14.70
2022-12-08T20:16:43.156Z,15.30
2022-12-08T20:19:10.584Z,17.00
2022-12-08T20:21:37.903Z,14.27
2022-12-08T20:24:05.318Z,14.93
2022-12-08T20:26:32.784Z,15.60
2022-12-08T20:29:00.121Z,16.10
2022-12-08T20:31:28.832Z,14.73
2022-12-08T20:33:56.606Z,17.33
2022-12-08T20:36:24.208Z,16.60
2022-12-08T20:38:52.412Z,18.87
2022-12-08T20:41:20.223Z,14.37
2022-12-08T20:43:48.820Z,16.30
2022-12-08T20:46:17.161Z,15.23
2022-12-08T20:48:45.244Z,15.50
2022-12-08T20:51:16.824Z,16.47
2022-12-08T20:53:44.422Z,19.93
2022-12-08T20:56:18.911Z,17.90
2022-12-08T20:58:46.431Z,16.63
2022-12-08T21:01:15.439Z,15.87
2022-12-08T21:03:43.373Z,16.40
2022-12-08T21:06:10.976Z,18.23
2022-12-08T21:08:38.856Z,17.30
2022-12-08T21:11:06.860Z,18.70
2022-12-08T21:13:34.275Z,18.97
2022-12-08T21:16:01.899Z,18.63
2022-12-08T21:18:32.175Z,18.07
2022-12-08T21:21:04.889Z,16.77
2022-12-08T21:23:32.553Z,16.90
2022-12-08T21:26:00.025Z,18.30
2022-12-08T21:28:27.441Z,19.07
2022-12-08T21:30:54.951Z,19.00
2022-12-08T21:33:22.477Z,19.33
2022-12-08T21:35:50.209Z,20.80
2022-12-08T21:38:17.778Z,20.47
2022-12-08T21:40:45.229Z,19.03
2022-12-08T21:43:13.700Z,19.17
2022-12-08T21:45:41.255Z,20.70
2022-12-08T21:48:11.656Z,21.00
2022-12-08T21:50:39.707Z,18.87
2022-12-08T21:53:07.132Z,17.97
2022-12-08T21:55:34.546Z,18.77
2022-12-08T21:58:02.297Z,21.87
2022-12-08T22:00:30.366Z,20.97
2022-12-08T22:02:58.726Z,18.73
2022-12-08T22:05:27.651Z,19.30
2022-12-08T22:07:56.388Z,22.80
2022-12-08T22:10:24.099Z,20.53
2022-12-08T22:12:51.650Z,19.50
2022-12-08T22:15:19.837Z,20.93
2022-12-08T22:17:49.015Z,21.03
2022-12-08T22:20:17.628Z,20.20
2022-12-08T22:22:46.223Z,20.33
2022-12-08T22:25:15.066Z,18.53
2022-12-08T22:27:44.014Z,20.13
2022-12-08T22:30:12.201Z,21.50
2022-12-08T22:32:40.371Z,19.50
2022-12-08T22:35:08.081Z,20.63
2022-12-08T22:37:35.559Z,21.57
2022-12-08T22:40:05.259Z,20.13
2022-12-08T22:42:33.388Z,20.27
2022-12-08T22:45:00.726Z,21.47
2022-12-08T22:47:28.027Z,23.33
2022-12-08T22:49:55.391Z,20.67
2022-12-08T22:52:22.633Z,21.60
2022-12-08T22:54:50.224Z,21.63
2022-12-08T22:57:17.612Z,20.13
2022-12-08T22:59:45.157Z,20.70
2022-12-08T23:02:12.631Z,21.70
2022-12-08T23:04:40.453Z,18.07
2022-12-08T23:07:07.957Z,19.67
2022-12-08T23:09:35.432Z,19.13
2022-12-08T23:12:02.786Z,21.27
2022-12-08T23:14:30.095Z,20.17
2022-12-08T23:16:57.543Z,23.53
2022-12-08T23:19:25.090Z,20.30
2022-12-08T23:21:52.588Z,21.23
2022-12-08T23:24:19.862Z,22.30
2022-12-08T23:26:47.352Z,21.47
2022-12-08T23:29:14.845Z,20.77
2022-12-08T23:31:42.542Z,22.13
2022-12-08T23:34:10.321Z,21.23
2022-12-08T23:36:37.681Z,20.90
2022-12-08T23:39:05.679Z,22.13
2022-12-08T23:41:33.204Z,20.87
2022-12-08T23:44:00.713Z,20.03
2022-12-08T23:46:28.235Z,21.93
2022-12-08T23:48:55.671Z,22.03
2022-12-08T23:51:23.043Z,20.00
2022-12-08T23:53:50.461Z,22.83
2022-12-08T23:56:18.196Z,22.77
2022-12-08T23:58:46.472Z,22.83
